sensor_id;sensor_type;location;lat;lon;timestamp;P1;durP1;ratioP1;P2;durP2;ratioP2
6306;SDS011;3186;54.062;9.962;2022-12-05T00:01:14;4.57;;;3.27;;
6306;SDS011;3186;54.062;9.962;2022-12-05T00:03:44;3.60;;;3.03;;
6306;SDS011;3186;54.062;9.962;2022-12-05T00:06:11;3.83;;;3.07;;
6306;SDS011;3186;54.062;9.962;2022-12-05T00:08:37;4.50;;;3.23;;
6306;SDS011;3186;54.062;9.962;2022-12-05T00:11:03;6.00;;;3.07;;
6306;SDS011;3186;54.062;9.962;2022-12-05T00:13:28;5.50;;;2.90;;
6306;SDS011;3186;54.062;9.962;2022-12-05T00:15:54;5.67;;;3.20;;
6306;SDS011;3186;54.062;9.962;2022-12-05T00:18:20;4.93;;;3.27;;
6306;SDS011;3186;54.062;9.962;2022-12-05T00:20:46;3.17;;;2.33;;
6306;SDS011;3186;54.062;9.962;2022-12-05T00:23:13;3.27;;;2.97;;
6306;SDS011;3186;54.062;9.962;2022-12-05T00:25:39;3.63;;;2.80;;
6306;SDS011;3186;54.062;9.962;2022-12-05T00:28:06;3.83;;;2.97;;
6306;SDS011;3186;54.062;9.962;2022-12-05T00:30:31;5.40;;;3.30;;
6306;SDS011;3186;54.062;9.962;2022-12-05T00:32:57;4.00;;;2.93;;
6306;SDS011;3186;54.062;9.962;2022-12-05T00:35:23;3.40;;;2.97;;
6306;SDS011;3186;54.062;9.962;2022-12-05T00:37:49;4.30;;;3.30;;
6306;SDS011;3186;54.062;9.962;2022-12-05T00:40:15;3.67;;;3.03;;
6306;SDS011;3186;54.062;9.962;2022-12-05T00:42:41;3.70;;;3.00;;
6306;SDS011;3186;54.062;9.962;2022-12-05T00:45:07;5.07;;;3.13;;
6306;SDS011;3186;54.062;9.962;2022-12-05T00:47:34;3.33;;;2.90;;
6306;SDS011;3186;54.062;9.962;2022-12-05T00:50:00;3.93;;;2.90;;
6306;SDS011;3186;54.062;9.962;2022-12-05T00:52:26;4.70;;;3.23;;
6306;SDS011;3186;54.062;9.962;2022-12-05T00:54:52;4.60;;;2.87;;
6306;SDS011;3186;54.062;9.962;2022-12-05T00:57:18;5.07;;;3.23;;
6306;SDS011;3186;54.062;9.962;2022-12-05T00:59:44;5.30;;;3.30;;
6306;SDS011;3186;54.062;9.962;2022-12-05T01:02:10;3.80;;;2.50;;
6306;SDS011;3186;54.062;9.962;2022-12-05T01:04:35;4.10;;;2.90;;
6306;SDS011;3186;54.062;9.962;2022-12-05T01:07:01;3.40;;;2.67;;
6306;SDS011;3186;54.062;9.962;2022-12-05T01:09:27;4.13;;;2.83;;
6306;SDS011;3186;54.062;9.962;2022-12-05T01:11:53;3.10;;;2.53;;
6306;SDS011;3186;54.062;9.962;2022-12-05T01:14:19;3.53;;;2.60;;
6306;SDS011;3186;54.062;9.962;2022-12-05T01:16:47;4.53;;;2.73;;
6306;SDS011;3186;54.062;9.962;2022-12-05T01:19:21;3.70;;;2.20;;
6306;SDS011;3186;54.062;9.962;2022-12-05T01:21:54;4.57;;;2.43;;
6306;SDS011;3186;54.062;9.962;2022-12-05T01:24:21;3.13;;;2.27;;
6306;SDS011;3186;54.062;9.962;2022-12-05T01:26:47;2.60;;;2.33;;
6306;SDS011;3186;54.062;9.962;2022-12-05T01:29:14;4.67;;;2.60;;
6306;SDS011;3186;54.062;9.962;2022-12-05T01:31:42;3.33;;;2.23;;
6306;SDS011;3186;54.062;9.962;2022-12-05T01:34:12;3.47;;;2.47;;
6306;SDS011;3186;54.062;9.962;2022-12-05T01:36:39;2.80;;;2.30;;
6306;SDS011;3186;54.062;9.962;2022-12-05T01:39:06;2.30;;;1.83;;
6306;SDS011;3186;54.062;9.962;2022-12-05T01:41:34;3.03;;;1.83;;
6306;SDS011;3186;54.062;9.962;2022-12-05T01:46:34;2.53;;;2.10;;
6306;SDS011;3186;54.062;9.962;2022-12-05T01:51:28;4.00;;;1.87;;
6306;SDS011;3186;54.062;9.962;2022-12-05T01:53:54;4.27;;;2.00;;
6306;SDS011;3186;54.062;9.962;2022-12-05T01:56:20;2.87;;;2.33;;
6306;SDS011;3186;54.062;9.962;2022-12-05T01:58:46;2.00;;;1.80;;
6306;SDS011;3186;54.062;9.962;2022-12-05T02:01:13;3.80;;;2.00;;
6306;SDS011;3186;54.062;9.962;2022-12-05T02:03:41;4.47;;;2.20;;
6306;SDS011;3186;54.062;9.962;2022-12-05T02:06:10;3.43;;;2.40;;
6306;SDS011;3186;54.062;9.962;2022-12-05T02:08:37;4.77;;;2.20;;
6306;SDS011;3186;54.062;9.962;2022-12-05T02:11:05;6.63;;;2.40;;
6306;SDS011;3186;54.062;9.962;2022-12-05T02:38:36;2.53;;;2.23;;
6306;SDS011;3186;54.062;9.962;2022-12-05T02:44:13;6.40;;;2.60;;
6306;SDS011;3186;54.062;9.962;2022-12-05T02:47:00;5.97;;;3.10;;
6306;SDS011;3186;54.062;9.962;2022-12-05T02:49:30;2.77;;;2.47;;
6306;SDS011;3186;54.062;9.962;2022-12-05T02:51:59;3.23;;;2.17;;
6306;SDS011;3186;54.062;9.962;2022-12-05T02:54:29;3.73;;;2.37;;
6306;SDS011;3186;54.062;9.962;2022-12-05T02:56:59;5.63;;;2.73;;
6306;SDS011;3186;54.062;9.962;2022-12-05T02:59:25;2.87;;;1.93;;
6306;SDS011;3186;54.062;9.962;2022-12-05T03:01:51;4.90;;;2.30;;
6306;SDS011;3186;54.062;9.962;2022-12-05T03:04:18;2.37;;;2.17;;
6306;SDS011;3186;54.062;9.962;2022-12-05T03:06:51;3.30;;;2.73;;
6306;SDS011;3186;54.062;9.962;2022-12-05T03:09:19;7.77;;;2.90;;
6306;SDS011;3186;54.062;9.962;2022-12-05T03:11:54;3.57;;;2.57;;
6306;SDS011;3186;54.062;9.962;2022-12-05T03:14:43;4.73;;;2.50;;
6306;SDS011;3186;54.062;9.962;2022-12-05T03:17:33;3.33;;;2.57;;
6306;SDS011;3186;54.062;9.962;2022-12-05T03:20:06;5.17;;;2.37;;
6306;SDS011;3186;54.062;9.962;2022-12-05T03:22:49;4.57;;;2.67;;
6306;SDS011;3186;54.062;9.962;2022-12-05T03:25:51;6.93;;;2.87;;
6306;SDS011;3186;54.062;9.962;2022-12-05T03:28:27;3.70;;;2.70;;
6306;SDS011;3186;54.062;9.962;2022-12-05T03:31:38;4.27;;;2.53;;
6306;SDS011;3186;54.062;9.962;2022-12-05T03:34:10;8.17;;;3.00;;
6306;SDS011;3186;54.062;9.962;2022-12-05T03:36:49;3.97;;;2.70;;
6306;SDS011;3186;54.062;9.962;2022-12-05T03:39:22;7.90;;;3.33;;
6306;SDS011;3186;54.062;9.962;2022-12-05T03:42:01;3.90;;;2.57;;
6306;SDS011;3186;54.062;9.962;2022-12-05T03:47:20;5.73;;;3.30;;
6306;SDS011;3186;54.062;9.962;2022-12-05T03:50:04;6.57;;;3.10;;
6306;SDS011;3186;54.062;9.962;2022-12-05T03:52:38;5.17;;;3.47;;
6306;SDS011;3186;54.062;9.962;2022-12-05T03:55:11;4.47;;;3.07;;
6306;SDS011;3186;54.062;9.962;2022-12-05T03:57:43;6.70;;;3.40;;
6306;SDS011;3186;54.062;9.962;2022-12-05T04:00:14;6.10;;;3.20;;
6306;SDS011;3186;54.062;9.962;2022-12-05T04:03:01;4.93;;;3.17;;
6306;SDS011;3186;54.062;9.962;2022-12-05T04:05:40;6.17;;;3.90;;
6306;SDS011;3186;54.062;9.962;2022-12-05T04:10:49;7.27;;;3.00;;
6306;SDS011;3186;54.062;9.962;2022-12-05T04:15:50;5.77;;;3.37;;
6306;SDS011;3186;54.062;9.962;2022-12-05T04:19:02;7.30;;;3.37;;
6306;SDS011;3186;54.062;9.962;2022-12-05T04:21:44;5.97;;;3.43;;
6306;SDS011;3186;54.062;9.962;2022-12-05T04:24:17;3.53;;;2.73;;
6306;SDS011;3186;54.062;9.962;2022-12-05T04:32:21;6.87;;;3.47;;
6306;SDS011;3186;54.062;9.962;2022-12-05T04:34:54;7.10;;;3.20;;
6306;SDS011;3186;54.062;9.962;2022-12-05T04:37:23;4.47;;;3.50;;
6306;SDS011;3186;54.062;9.962;2022-12-05T04:39:59;5.20;;;3.43;;
6306;SDS011;3186;54.062;9.962;2022-12-05T04:42:29;5.20;;;3.50;;
6306;SDS011;3186;54.062;9.962;2022-12-05T04:45:01;5.30;;;3.30;;
6306;SDS011;3186;54.062;9.962;2022-12-05T04:47:32;5.00;;;3.73;;
6306;SDS011;3186;54.062;9.962;2022-12-05T04:50:08;6.03;;;3.63;;
6306;SDS011;3186;54.062;9.962;2022-12-05T04:52:36;5.83;;;3.47;;
6306;SDS011;3186;54.062;9.962;2022-12-05T04:55:23;5.63;;;3.17;;
6306;SDS011;3186;54.062;9.962;2022-12-05T04:57:58;6.80;;;3.60;;
6306;SDS011;3186;54.062;9.962;2022-12-05T05:00:30;5.83;;;3.90;;
6306;SDS011;3186;54.062;9.962;2022-12-05T05:03:59;9.03;;;4.03;;
6306;SDS011;3186;54.062;9.962;2022-12-05T05:06:00;7.50;;;4.17;;
6306;SDS011;3186;54.062;9.962;2022-12-05T05:08:27;7.60;;;4.20;;
6306;SDS011;3186;54.062;9.962;2022-12-05T05:11:05;9.27;;;4.20;;
6306;SDS011;3186;54.062;9.962;2022-12-05T05:13:33;6.73;;;4.27;;
6306;SDS011;3186;54.062;9.962;2022-12-05T05:15:59;7.97;;;3.97;;
6306;SDS011;3186;54.062;9.962;2022-12-05T05:18:24;10.30;;;4.47;;
6306;SDS011;3186;54.062;9.962;2022-12-05T05:20:50;9.23;;;4.13;;
6306;SDS011;3186;54.062;9.962;2022-12-05T05:23:16;8.67;;;4.13;;
6306;SDS011;3186;54.062;9.962;2022-12-05T05:25:42;18.87;;;7.00;;
6306;SDS011;3186;54.062;9.962;2022-12-05T05:28:07;8.03;;;4.43;;
6306;SDS011;3186;54.062;9.962;2022-12-05T05:30:33;9.47;;;4.50;;
6306;SDS011;3186;54.062;9.962;2022-12-05T05:32:59;8.07;;;4.70;;
6306;SDS011;3186;54.062;9.962;2022-12-05T05:35:25;8.53;;;4.07;;
6306;SDS011;3186;54.062;9.962;2022-12-05T05:37:51;9.67;;;5.00;;
6306;SDS011;3186;54.062;9.962;2022-12-05T05:40:17;9.10;;;4.63;;
6306;SDS011;3186;54.062;9.962;2022-12-05T05:42:43;9.03;;;4.37;;
6306;SDS011;3186;54.062;9.962;2022-12-05T05:45:11;6.77;;;4.17;;
6306;SDS011;3186;54.062;9.962;2022-12-05T05:47:38;7.97;;;4.50;;
6306;SDS011;3186;54.062;9.962;2022-12-05T05:50:04;8.37;;;4.47;;
6306;SDS011;3186;54.062;9.962;2022-12-05T05:52:32;6.83;;;3.73;;
6306;SDS011;3186;54.062;9.962;2022-12-05T05:55:00;12.47;;;4.80;;
6306;SDS011;3186;54.062;9.962;2022-12-05T05:57:26;8.37;;;4.60;;
6306;SDS011;3186;54.062;9.962;2022-12-05T05:59:52;7.97;;;4.50;;
6306;SDS011;3186;54.062;9.962;2022-12-05T06:02:17;10.70;;;4.70;;
6306;SDS011;3186;54.062;9.962;2022-12-05T06:04:43;7.83;;;4.30;;
6306;SDS011;3186;54.062;9.962;2022-12-05T06:07:09;8.27;;;4.73;;
6306;SDS011;3186;54.062;9.962;2022-12-05T06:09:35;6.63;;;4.53;;
6306;SDS011;3186;54.062;9.962;2022-12-05T06:12:01;7.70;;;4.67;;
6306;SDS011;3186;54.062;9.962;2022-12-05T06:14:27;8.53;;;4.10;;
6306;SDS011;3186;54.062;9.962;2022-12-05T06:16:53;7.53;;;4.03;;
6306;SDS011;3186;54.062;9.962;2022-12-05T06:19:18;6.33;;;4.03;;
6306;SDS011;3186;54.062;9.962;2022-12-05T06:21:44;8.57;;;4.53;;
6306;SDS011;3186;54.062;9.962;2022-12-05T06:24:12;9.20;;;4.70;;
6306;SDS011;3186;54.062;9.962;2022-12-05T06:26:38;7.90;;;4.40;;
6306;SDS011;3186;54.062;9.962;2022-12-05T06:29:03;9.33;;;4.57;;
6306;SDS011;3186;54.062;9.962;2022-12-05T06:31:29;8.10;;;4.20;;
6306;SDS011;3186;54.062;9.962;2022-12-05T06:34:01;8.33;;;4.87;;
6306;SDS011;3186;54.062;9.962;2022-12-05T06:36:28;7.80;;;4.50;;
6306;SDS011;3186;54.062;9.962;2022-12-05T06:38:58;5.90;;;4.13;;
6306;SDS011;3186;54.062;9.962;2022-12-05T06:41:25;8.37;;;4.80;;
6306;SDS011;3186;54.062;9.962;2022-12-05T06:43:52;9.53;;;5.10;;
6306;SDS011;3186;54.062;9.962;2022-12-05T06:46:20;7.17;;;4.20;;
6306;SDS011;3186;54.062;9.962;2022-12-05T06:48:46;9.50;;;5.20;;
6306;SDS011;3186;54.062;9.962;2022-12-05T06:51:13;7.83;;;4.43;;
6306;SDS011;3186;54.062;9.962;2022-12-05T06:53:40;7.97;;;4.23;;
6306;SDS011;3186;54.062;9.962;2022-12-05T06:56:09;8.43;;;5.07;;
6306;SDS011;3186;54.062;9.962;2022-12-05T06:58:38;8.50;;;4.30;;
6306;SDS011;3186;54.062;9.962;2022-12-05T07:01:11;8.27;;;4.50;;
6306;SDS011;3186;54.062;9.962;2022-12-05T07:03:59;7.73;;;4.93;;
6306;SDS011;3186;54.062;9.962;2022-12-05T07:06:26;7.77;;;4.70;;
6306;SDS011;3186;54.062;9.962;2022-12-05T07:08:52;7.37;;;4.40;;
6306;SDS011;3186;54.062;9.962;2022-12-05T07:11:18;6.17;;;4.47;;
6306;SDS011;3186;54.062;9.962;2022-12-05T07:13:44;8.03;;;5.33;;
6306;SDS011;3186;54.062;9.962;2022-12-05T07:16:10;10.20;;;5.73;;
6306;SDS011;3186;54.062;9.962;2022-12-05T07:18:35;8.90;;;5.30;;
6306;SDS011;3186;54.062;9.962;2022-12-05T07:21:03;13.43;;;5.97;;
6306;SDS011;3186;54.062;9.962;2022-12-05T07:23:30;11.40;;;6.57;;
6306;SDS011;3186;54.062;9.962;2022-12-05T07:25:56;11.07;;;6.37;;
6306;SDS011;3186;54.062;9.962;2022-12-05T07:28:22;13.07;;;7.10;;
6306;SDS011;3186;54.062;9.962;2022-12-05T07:30:57;10.60;;;5.90;;
6306;SDS011;3186;54.062;9.962;2022-12-05T07:33:24;13.37;;;6.17;;
6306;SDS011;3186;54.062;9.962;2022-12-05T07:35:50;11.50;;;6.93;;
6306;SDS011;3186;54.062;9.962;2022-12-05T07:38:16;13.07;;;7.17;;
6306;SDS011;3186;54.062;9.962;2022-12-05T07:40:42;11.30;;;5.93;;
6306;SDS011;3186;54.062;9.962;2022-12-05T07:43:08;10.13;;;6.27;;
6306;SDS011;3186;54.062;9.962;2022-12-05T07:45:33;14.33;;;7.90;;
6306;SDS011;3186;54.062;9.962;2022-12-05T07:47:59;17.67;;;9.47;;
6306;SDS011;3186;54.062;9.962;2022-12-05T07:50:25;20.63;;;10.30;;
6306;SDS011;3186;54.062;9.962;2022-12-05T07:52:51;24.00;;;12.97;;
6306;SDS011;3186;54.062;9.962;2022-12-05T07:55:17;22.30;;;11.30;;
6306;SDS011;3186;54.062;9.962;2022-12-05T07:57:43;26.27;;;12.37;;
6306;SDS011;3186;54.062;9.962;2022-12-05T08:00:09;29.97;;;14.40;;
6306;SDS011;3186;54.062;9.962;2022-12-05T08:02:38;31.73;;;15.77;;
6306;SDS011;3186;54.062;9.962;2022-12-05T08:05:04;35.33;;;16.93;;
6306;SDS011;3186;54.062;9.962;2022-12-05T08:07:30;41.00;;;18.20;;
6306;SDS011;3186;54.062;9.962;2022-12-05T08:09:56;36.37;;;17.47;;
6306;SDS011;3186;54.062;9.962;2022-12-05T08:12:21;39.27;;;18.10;;
6306;SDS011;3186;54.062;9.962;2022-12-05T08:14:47;40.97;;;20.60;;
6306;SDS011;3186;54.062;9.962;2022-12-05T08:17:13;42.67;;;19.80;;
6306;SDS011;3186;54.062;9.962;2022-12-05T08:19:39;44.37;;;20.23;;
6306;SDS011;3186;54.062;9.962;2022-12-05T08:22:04;44.67;;;21.20;;
6306;SDS011;3186;54.062;9.962;2022-12-05T08:24:30;49.40;;;20.90;;
6306;SDS011;3186;54.062;9.962;2022-12-05T08:26:56;53.07;;;21.53;;
6306;SDS011;3186;54.062;9.962;2022-12-05T08:29:22;47.33;;;21.30;;
6306;SDS011;3186;54.062;9.962;2022-12-05T08:31:49;48.03;;;22.00;;
6306;SDS011;3186;54.062;9.962;2022-12-05T08:34:16;47.60;;;23.23;;
6306;SDS011;3186;54.062;9.962;2022-12-05T08:36:43;50.23;;;22.40;;
6306;SDS011;3186;54.062;9.962;2022-12-05T08:39:11;52.77;;;22.77;;
6306;SDS011;3186;54.062;9.962;2022-12-05T08:41:41;48.50;;;22.67;;
6306;SDS011;3186;54.062;9.962;2022-12-05T08:44:08;53.10;;;22.80;;
6306;SDS011;3186;54.062;9.962;2022-12-05T08:46:35;43.60;;;21.13;;
6306;SDS011;3186;54.062;9.962;2022-12-05T08:49:03;48.37;;;21.77;;
6306;SDS011;3186;54.062;9.962;2022-12-05T08:51:29;45.93;;;20.97;;
6306;SDS011;3186;54.062;9.962;2022-12-05T08:53:55;48.13;;;22.27;;
6306;SDS011;3186;54.062;9.962;2022-12-05T08:56:21;46.17;;;21.53;;
6306;SDS011;3186;54.062;9.962;2022-12-05T08:58:47;50.53;;;23.13;;
6306;SDS011;3186;54.062;9.962;2022-12-05T09:01:18;50.30;;;22.53;;
6306;SDS011;3186;54.062;9.962;2022-12-05T09:03:45;51.30;;;22.13;;
6306;SDS011;3186;54.062;9.962;2022-12-05T09:06:12;46.27;;;21.17;;
6306;SDS011;3186;54.062;9.962;2022-12-05T09:08:39;51.63;;;23.10;;
6306;SDS011;3186;54.062;9.962;2022-12-05T09:11:10;54.13;;;23.53;;
6306;SDS011;3186;54.062;9.962;2022-12-05T09:13:40;56.03;;;23.70;;
6306;SDS011;3186;54.062;9.962;2022-12-05T09:16:07;47.20;;;21.87;;
6306;SDS011;3186;54.062;9.962;2022-12-05T09:18:38;53.17;;;22.93;;
6306;SDS011;3186;54.062;9.962;2022-12-05T09:21:08;58.80;;;24.57;;
6306;SDS011;3186;54.062;9.962;2022-12-05T09:23:36;54.73;;;23.70;;
6306;SDS011;3186;54.062;9.962;2022-12-05T09:26:02;59.00;;;23.77;;
6306;SDS011;3186;54.062;9.962;2022-12-05T09:28:30;53.80;;;24.37;;
6306;SDS011;3186;54.062;9.962;2022-12-05T09:31:01;61.13;;;25.73;;
6306;SDS011;3186;54.062;9.962;2022-12-05T09:33:30;55.97;;;23.60;;
6306;SDS011;3186;54.062;9.962;2022-12-05T09:35:58;51.07;;;23.80;;
6306;SDS011;3186;54.062;9.962;2022-12-05T09:38:26;57.67;;;25.00;;
6306;SDS011;3186;54.062;9.962;2022-12-05T09:41:09;51.73;;;23.27;;
6306;SDS011;3186;54.062;9.962;2022-12-05T09:43:45;53.87;;;24.37;;
6306;SDS011;3186;54.062;9.962;2022-12-05T09:48:52;59.77;;;24.83;;
6306;SDS011;3186;54.062;9.962;2022-12-05T09:51:18;60.50;;;25.07;;
6306;SDS011;3186;54.062;9.962;2022-12-05T09:53:44;61.43;;;26.07;;
6306;SDS011;3186;54.062;9.962;2022-12-05T09:56:24;53.23;;;24.37;;
6306;SDS011;3186;54.062;9.962;2022-12-05T09:58:53;56.43;;;24.43;;
6306;SDS011;3186;54.062;9.962;2022-12-05T10:15:00;59.43;;;24.90;;
6306;SDS011;3186;54.062;9.962;2022-12-05T10:17:32;58.30;;;25.33;;
6306;SDS011;3186;54.062;9.962;2022-12-05T10:20:10;53.90;;;23.20;;
6306;SDS011;3186;54.062;9.962;2022-12-05T10:22:47;57.23;;;25.10;;
6306;SDS011;3186;54.062;9.962;2022-12-05T10:25:18;47.90;;;22.87;;
6306;SDS011;3186;54.062;9.962;2022-12-05T10:27:50;50.97;;;23.37;;
6306;SDS011;3186;54.062;9.962;2022-12-05T10:30:21;51.80;;;23.50;;
6306;SDS011;3186;54.062;9.962;2022-12-05T10:32:59;47.97;;;21.70;;
6306;SDS011;3186;54.062;9.962;2022-12-05T10:35:35;47.17;;;22.83;;
6306;SDS011;3186;54.062;9.962;2022-12-05T10:38:02;55.03;;;23.47;;
6306;SDS011;3186;54.062;9.962;2022-12-05T10:40:38;52.73;;;23.10;;
6306;SDS011;3186;54.062;9.962;2022-12-05T10:43:06;50.20;;;23.13;;
6306;SDS011;3186;54.062;9.962;2022-12-05T10:45:35;52.63;;;22.20;;
6306;SDS011;3186;54.062;9.962;2022-12-05T10:48:08;49.63;;;22.67;;
6306;SDS011;3186;54.062;9.962;2022-12-05T10:50:37;56.70;;;23.73;;
6306;SDS011;3186;54.062;9.962;2022-12-05T10:53:04;53.57;;;24.73;;
6306;SDS011;3186;54.062;9.962;2022-12-05T10:55:41;47.77;;;21.53;;
6306;SDS011;3186;54.062;9.962;2022-12-05T11:00:42;52.63;;;23.40;;
6306;SDS011;3186;54.062;9.962;2022-12-05T11:05:53;48.90;;;21.33;;
6306;SDS011;3186;54.062;9.962;2022-12-05T11:08:22;60.70;;;23.50;;
6306;SDS011;3186;54.062;9.962;2022-12-05T11:10:57;51.03;;;22.53;;
6306;SDS011;3186;54.062;9.962;2022-12-05T11:13:27;48.80;;;23.20;;
6306;SDS011;3186;54.062;9.962;2022-12-05T11:15:52;54.70;;;22.50;;
6306;SDS011;3186;54.062;9.962;2022-12-05T11:18:25;52.03;;;23.33;;
6306;SDS011;3186;54.062;9.962;2022-12-05T11:20:58;49.87;;;22.77;;
6306;SDS011;3186;54.062;9.962;2022-12-05T11:23:36;51.57;;;22.83;;
6306;SDS011;3186;54.062;9.962;2022-12-05T11:26:02;48.63;;;21.60;;
6306;SDS011;3186;54.062;9.962;2022-12-05T11:28:35;47.90;;;22.97;;
6306;SDS011;3186;54.062;9.962;2022-12-05T11:33:31;47.90;;;22.40;;
6306;SDS011;3186;54.062;9.962;2022-12-05T11:36:21;49.07;;;22.70;;
6306;SDS011;3186;54.062;9.962;2022-12-05T11:38:46;48.27;;;21.33;;
6306;SDS011;3186;54.062;9.962;2022-12-05T11:54:53;46.60;;;21.93;;
6306;SDS011;3186;54.062;9.962;2022-12-05T12:08:34;47.40;;;21.43;;
6306;SDS011;3186;54.062;9.962;2022-12-05T12:32:51;43.63;;;20.40;;
6306;SDS011;3186;54.062;9.962;2022-12-05T12:35:40;45.10;;;22.10;;
6306;SDS011;3186;54.062;9.962;2022-12-05T12:38:33;41.20;;;20.53;;
6306;SDS011;3186;54.062;9.962;2022-12-05T12:50:04;44.73;;;21.03;;
6306;SDS011;3186;54.062;9.962;2022-12-05T12:53:06;42.90;;;19.40;;
6306;SDS011;3186;54.062;9.962;2022-12-05T13:03:46;41.67;;;20.20;;
6306;SDS011;3186;54.062;9.962;2022-12-05T13:08:41;39.70;;;19.80;;
6306;SDS011;3186;54.062;9.962;2022-12-05T13:11:19;38.83;;;20.77;;
6306;SDS011;3186;54.062;9.962;2022-12-05T13:13:51;38.60;;;18.90;;
6306;SDS011;3186;54.062;9.962;2022-12-05T13:16:25;37.93;;;19.10;;
6306;SDS011;3186;54.062;9.962;2022-12-05T13:18:59;40.27;;;19.27;;
6306;SDS011;3186;54.062;9.962;2022-12-05T13:21:26;36.87;;;17.90;;
6306;SDS011;3186;54.062;9.962;2022-12-05T13:23:54;37.23;;;18.63;;
6306;SDS011;3186;54.062;9.962;2022-12-05T13:26:27;36.87;;;19.20;;
6306;SDS011;3186;54.062;9.962;2022-12-05T13:28:58;35.27;;;18.33;;
6306;SDS011;3186;54.062;9.962;2022-12-05T13:31:39;37.20;;;18.60;;
6306;SDS011;3186;54.062;9.962;2022-12-05T13:36:53;35.27;;;18.50;;
6306;SDS011;3186;54.062;9.962;2022-12-05T13:39:40;38.43;;;17.97;;
6306;SDS011;3186;54.062;9.962;2022-12-05T13:42:28;38.63;;;19.37;;
6306;SDS011;3186;54.062;9.962;2022-12-05T13:44:57;37.30;;;18.60;;
6306;SDS011;3186;54.062;9.962;2022-12-05T13:53:44;36.60;;;17.20;;
6306;SDS011;3186;54.062;9.962;2022-12-05T13:55:54;33.70;;;16.97;;
6306;SDS011;3186;54.062;9.962;2022-12-05T14:00:49;33.77;;;17.53;;
6306;SDS011;3186;54.062;9.962;2022-12-05T14:05:57;33.60;;;16.60;;
6306;SDS011;3186;54.062;9.962;2022-12-05T14:15:47;35.30;;;16.57;;
6306;SDS011;3186;54.062;9.962;2022-12-05T14:18:15;31.40;;;16.70;;
6306;SDS011;3186;54.062;9.962;2022-12-05T14:37:19;30.90;;;16.33;;
6306;SDS011;3186;54.062;9.962;2022-12-05T14:39:51;26.30;;;14.87;;
6306;SDS011;3186;54.062;9.962;2022-12-05T14:44:56;29.93;;;15.33;;
6306;SDS011;3186;54.062;9.962;2022-12-05T14:47:29;29.37;;;15.50;;
6306;SDS011;3186;54.062;9.962;2022-12-05T14:49:58;31.97;;;16.33;;
6306;SDS011;3186;54.062;9.962;2022-12-05T14:52:44;28.83;;;15.23;;
6306;SDS011;3186;54.062;9.962;2022-12-05T14:55:57;31.83;;;15.87;;
6306;SDS011;3186;54.062;9.962;2022-12-05T15:01:06;29.97;;;15.97;;
6306;SDS011;3186;54.062;9.962;2022-12-05T15:04:07;29.63;;;15.63;;
6306;SDS011;3186;54.062;9.962;2022-12-05T15:06:49;28.80;;;14.40;;
6306;SDS011;3186;54.062;9.962;2022-12-05T15:12:26;29.50;;;14.57;;
6306;SDS011;3186;54.062;9.962;2022-12-05T15:17:50;29.00;;;14.63;;
6306;SDS011;3186;54.062;9.962;2022-12-05T15:20:41;28.47;;;13.57;;
6306;SDS011;3186;54.062;9.962;2022-12-05T15:29:23;28.10;;;15.43;;
6306;SDS011;3186;54.062;9.962;2022-12-05T15:31:45;27.87;;;14.73;;
6306;SDS011;3186;54.062;9.962;2022-12-05T15:36:59;24.57;;;13.17;;
6306;SDS011;3186;54.062;9.962;2022-12-05T15:39:52;29.33;;;13.70;;
6306;SDS011;3186;54.062;9.962;2022-12-05T15:42:29;24.53;;;13.70;;
6306;SDS011;3186;54.062;9.962;2022-12-05T15:47:39;22.40;;;13.63;;
6306;SDS011;3186;54.062;9.962;2022-12-05T15:50:37;26.97;;;14.13;;
6306;SDS011;3186;54.062;9.962;2022-12-05T15:53:08;27.93;;;15.13;;
6306;SDS011;3186;54.062;9.962;2022-12-05T15:58:47;25.23;;;13.83;;
6306;SDS011;3186;54.062;9.962;2022-12-05T16:01:22;28.47;;;14.80;;
6306;SDS011;3186;54.062;9.962;2022-12-05T16:06:23;26.00;;;14.77;;
6306;SDS011;3186;54.062;9.962;2022-12-05T16:08:51;24.03;;;13.60;;
6306;SDS011;3186;54.062;9.962;2022-12-05T16:11:17;25.43;;;14.00;;
6306;SDS011;3186;54.062;9.962;2022-12-05T16:13:50;27.70;;;15.00;;
6306;SDS011;3186;54.062;9.962;2022-12-05T16:16:55;26.17;;;15.23;;
6306;SDS011;3186;54.062;9.962;2022-12-05T16:19:16;26.00;;;14.53;;
6306;SDS011;3186;54.062;9.962;2022-12-05T16:21:47;25.27;;;13.70;;
6306;SDS011;3186;54.062;9.962;2022-12-05T16:25:11;25.40;;;14.63;;
6306;SDS011;3186;54.062;9.962;2022-12-05T16:27:41;25.27;;;13.90;;
6306;SDS011;3186;54.062;9.962;2022-12-05T16:30:18;26.17;;;14.37;;
6306;SDS011;3186;54.062;9.962;2022-12-05T16:32:46;27.07;;;14.17;;
6306;SDS011;3186;54.062;9.962;2022-12-05T16:38:04;22.20;;;13.70;;
6306;SDS011;3186;54.062;9.962;2022-12-05T16:40:57;22.23;;;12.97;;
6306;SDS011;3186;54.062;9.962;2022-12-05T16:48:32;21.57;;;12.63;;
6306;SDS011;3186;54.062;9.962;2022-12-05T16:53:47;24.30;;;13.70;;
6306;SDS011;3186;54.062;9.962;2022-12-05T16:58:42;23.97;;;12.67;;
6306;SDS011;3186;54.062;9.962;2022-12-05T17:01:15;21.87;;;13.20;;
6306;SDS011;3186;54.062;9.962;2022-12-05T17:03:43;24.40;;;13.57;;
6306;SDS011;3186;54.062;9.962;2022-12-05T17:06:10;23.53;;;12.50;;
6306;SDS011;3186;54.062;9.962;2022-12-05T17:08:36;22.63;;;12.70;;
6306;SDS011;3186;54.062;9.962;2022-12-05T17:11:02;20.77;;;12.40;;
6306;SDS011;3186;54.062;9.962;2022-12-05T17:13:30;24.20;;;13.17;;
6306;SDS011;3186;54.062;9.962;2022-12-05T17:15:57;21.20;;;13.73;;
6306;SDS011;3186;54.062;9.962;2022-12-05T17:18:23;20.57;;;12.20;;
6306;SDS011;3186;54.062;9.962;2022-12-05T17:20:49;21.77;;;12.93;;
6306;SDS011;3186;54.062;9.962;2022-12-05T17:23:18;21.10;;;12.30;;
6306;SDS011;3186;54.062;9.962;2022-12-05T17:25:51;19.07;;;11.90;;
6306;SDS011;3186;54.062;9.962;2022-12-05T17:28:18;21.93;;;12.10;;
6306;SDS011;3186;54.062;9.962;2022-12-05T17:30:45;22.77;;;12.70;;
6306;SDS011;3186;54.062;9.962;2022-12-05T17:33:11;22.60;;;12.70;;
6306;SDS011;3186;54.062;9.962;2022-12-05T17:35:39;23.07;;;13.27;;
6306;SDS011;3186;54.062;9.962;2022-12-05T17:38:06;20.03;;;12.20;;
6306;SDS011;3186;54.062;9.962;2022-12-05T17:40:32;20.97;;;12.57;;
6306;SDS011;3186;54.062;9.962;2022-12-05T17:42:58;21.53;;;13.00;;
6306;SDS011;3186;54.062;9.962;2022-12-05T17:45:24;20.93;;;12.80;;
6306;SDS011;3186;54.062;9.962;2022-12-05T17:47:50;21.53;;;13.33;;
6306;SDS011;3186;54.062;9.962;2022-12-05T17:50:18;18.07;;;12.07;;
6306;SDS011;3186;54.062;9.962;2022-12-05T17:52:46;20.97;;;13.17;;
6306;SDS011;3186;54.062;9.962;2022-12-05T17:55:20;21.60;;;12.53;;
6306;SDS011;3186;54.062;9.962;2022-12-05T17:57:52;24.90;;;14.90;;
6306;SDS011;3186;54.062;9.962;2022-12-05T18:00:18;24.00;;;12.37;;
6306;SDS011;3186;54.062;9.962;2022-12-05T18:02:46;21.47;;;12.10;;
6306;SDS011;3186;54.062;9.962;2022-12-05T18:05:12;23.67;;;12.37;;
6306;SDS011;3186;54.062;9.962;2022-12-05T18:07:40;19.97;;;11.80;;
6306;SDS011;3186;54.062;9.962;2022-12-05T18:10:08;21.07;;;12.50;;
6306;SDS011;3186;54.062;9.962;2022-12-05T18:12:40;21.97;;;11.83;;
6306;SDS011;3186;54.062;9.962;2022-12-05T18:15:06;18.90;;;11.83;;
6306;SDS011;3186;54.062;9.962;2022-12-05T18:17:33;20.43;;;11.90;;
6306;SDS011;3186;54.062;9.962;2022-12-05T18:19:59;18.03;;;11.57;;
6306;SDS011;3186;54.062;9.962;2022-12-05T18:22:25;20.50;;;12.23;;
6306;SDS011;3186;54.062;9.962;2022-12-05T18:24:52;24.00;;;13.27;;
6306;SDS011;3186;54.062;9.962;2022-12-05T18:27:19;17.83;;;10.90;;
6306;SDS011;3186;54.062;9.962;2022-12-05T18:29:46;18.90;;;11.37;;
6306;SDS011;3186;54.062;9.962;2022-12-05T18:32:13;20.10;;;11.43;;
6306;SDS011;3186;54.062;9.962;2022-12-05T18:34:39;18.37;;;11.07;;
6306;SDS011;3186;54.062;9.962;2022-12-05T18:37:04;21.13;;;11.30;;
6306;SDS011;3186;54.062;9.962;2022-12-05T18:39:30;18.67;;;11.50;;
6306;SDS011;3186;54.062;9.962;2022-12-05T18:41:56;20.23;;;11.70;;
6306;SDS011;3186;54.062;9.962;2022-12-05T18:44:22;18.73;;;11.53;;
6306;SDS011;3186;54.062;9.962;2022-12-05T18:46:51;20.47;;;12.00;;
6306;SDS011;3186;54.062;9.962;2022-12-05T18:49:17;20.80;;;11.77;;
6306;SDS011;3186;54.062;9.962;2022-12-05T18:51:43;18.63;;;11.40;;
6306;SDS011;3186;54.062;9.962;2022-12-05T18:54:08;20.07;;;11.83;;
6306;SDS011;3186;54.062;9.962;2022-12-05T18:56:34;19.80;;;11.70;;